Time;durP1;ratioP1;P1;durP2;ratioP2;P2;SDS_P1;SDS_P2;PMS_P1;PMS_P2;Temp;Humidity;BMP_temperature;BMP_pressure;BME280_temperature;BME280_humidity;BME280_pressure;Samples;Min_cycle;Max_cycle;Signal;HPM_P1;HPM_P2
2022/06/08 00:00:36;;;;;;;18.38;15.15;;;;;;;;;;5028453;28;20051;-84
2022/06/08 00:03:05;;;;;;;19.67;15.85;;;;;;;;;;5011278;28;20073;-84
2022/06/08 00:05:30;;;;;;;18.60;15.15;;;;;;;;;;5017510;28;20041;-84
2022/06/08 00:07:56;;;;;;;18.05;14.45;;;;;;;14.85;99.97;68418.78;5028356;28;20076;-84
2022/06/08 00:10:22;;;;;;;19.27;14.75;;;;;;;14.88;99.76;68427.56;5010657;28;20095;-84
2022/06/08 00:12:47;;;;;;;18.40;13.88;;;;;;;;;;4991213;28;20042;-84
2022/06/08 00:15:13;;;;;;;18.58;14.63;;;;;;;14.86;99.59;68425.28;4996929;28;20466;-84
2022/06/08 00:17:39;;;;;;;19.60;15.35;;;;;;;14.90;99.73;68429.25;5021208;28;20041;-84
2022/06/08 00:20:05;;;;;;;22.85;17.02;;;;;;;;;;5028523;28;20042;-84
2022/06/08 00:22:30;;;;;;;19.10;15.63;;;;;;;14.97;99.80;68426.53;5028346;28;20038;-84
2022/06/08 00:24:56;;;;;;;22.42;16.35;;;;;;;;;;5000298;28;20099;-84
2022/06/08 00:27:21;;;;;;;25.20;16.60;;;;;;;15.01;99.88;68433.19;5019471;28;20053;-84
2022/06/08 00:29:46;;;;;;;20.67;16.52;;;;;;;;;;5027594;28;20033;-84
2022/06/08 00:32:12;;;;;;;21.10;16.98;;;;;;;14.90;100.00;68423.91;5021107;28;20531;-84
2022/06/08 00:34:37;;;;;;;20.92;17.30;;;;;;;14.86;100.00;68425.28;5027715;28;20034;-84
2022/06/08 00:37:03;;;;;;;22.17;16.70;;;;;;;14.82;100.00;68420.75;5013287;28;20043;-85
2022/06/08 00:39:28;;;;;;;20.17;16.85;;;;;;;14.78;100.00;68410.25;5031976;28;20053;-85
2022/06/08 00:42:02;;;;;;;21.27;17.25;;;;;;;14.71;100.00;68402.84;5019008;28;20025;-85
2022/06/08 00:44:33;;;;;;;21.30;17.52;;;;;;;;;;5009888;28;20047;-85
2022/06/08 00:47:00;;;;;;;21.95;17.25;;;;;;;14.56;100.00;68386.34;5029397;28;20037;-84
2022/06/08 00:49:51;;;;;;;23.67;18.83;;;;;;;14.55;100.00;68384.63;5007630;28;20045;-84
2022/06/08 00:52:17;;;;;;;22.05;18.42;;;;;;;;;;5024514;28;20042;-85
2022/06/08 00:54:48;;;;;;;22.52;19.13;;;;;;;14.48;100.00;68382.56;5013039;28;20043;-85
2022/06/08 00:57:23;;;;;;;25.35;19.80;;;;;;;14.49;100.00;68383.69;5030400;28;20045;-84
2022/06/08 00:59:55;;;;;;;25.13;19.88;;;;;;;14.44;100.00;68372.66;5031889;28;20077;-84
2022/06/08 01:02:20;;;;;;;24.75;19.90;;;;;;;;;;5026094;28;20049;-84
2022/06/08 01:04:45;;;;;;;25.30;19.60;;;;;;;;;;5029311;28;20611;-84
2022/06/08 01:07:17;;;;;;;26.98;20.30;;;;;;;14.25;100.00;68356.41;5013563;28;20044;-84
2022/06/08 01:09:44;;;;;;;26.90;20.58;;;;;;;14.21;100.00;68352.41;5022555;28;20073;-85
2022/06/08 01:12:13;;;;;;;26.95;20.70;;;;;;;14.10;100.00;68340.47;5022920;28;20053;-85
2022/06/08 01:14:38;;;;;;;28.60;21.10;;;;;;;;;;5031137;28;20107;-85
2022/06/08 01:17:08;;;;;;;28.85;22.52;;;;;;;13.88;100.00;68310.63;5032306;28;20049;-85
2022/06/08 01:19:36;;;;;;;24.73;21.40;;;;;;;13.83;100.00;68310.28;5024605;28;20037;-85
2022/06/08 01:22:03;;;;;;;31.77;23.25;;;;;;;13.80;100.00;68301.53;5018164;28;20045;-84
2022/06/08 01:24:29;;;;;;;30.27;23.70;;;;;;;13.78;100.00;68299.25;5018740;28;20064;-85
2022/06/08 01:27:09;;;;;;;28.92;23.30;;;;;;;;;;5031076;28;20094;-85
2022/06/08 01:29:52;;;;;;;30.83;23.63;;;;;;;13.65;100.00;68285.03;5012671;28;20129;-85
2022/06/08 01:32:26;;;;;;;35.22;28.00;;;;;;;13.73;100.00;68298.94;5025257;28;20046;-84
2022/06/08 01:34:52;;;;;;;34.45;27.50;;;;;;;13.77;100.00;68298.69;5029713;28;20132;-84
2022/06/08 01:37:33;;;;;;;39.40;31.45;;;;;;;13.82;100.00;68308.59;5032449;28;20096;-84
2022/06/08 01:40:38;;;;;;;39.38;31.27;;;;;;;13.79;100.00;68305.75;5025692;28;20033;-84
2022/06/08 01:43:03;;;;;;;40.95;30.80;;;;;;;;;;5012667;28;20397;-84
2022/06/08 01:45:40;;;;;;;42.77;31.43;;;;;;;;;;5010473;28;20045;-84
2022/06/08 01:48:11;;;;;;;46.20;34.28;;;;;;;;;;5019710;28;20830;-84
2022/06/08 01:50:40;;;;;;;45.28;37.10;;;;;;;;;;5019699;28;20108;-85
2022/06/08 01:53:16;;;;;;;;;;;;;;;13.89;100.00;68311.19;5010905;28;20506;-84
2022/06/08 01:55:58;;;;;;;48.20;38.80;;;;;;;13.79;100.00;68305.19;5029239;28;19932;-84
2022/06/08 01:58:37;;;;;;;51.38;35.38;;;;;;;13.78;100.00;68299.25;5029175;28;20402;-84
2022/06/08 02:01:16;;;;;;;52.22;37.88;;;;;;;13.84;100.00;68310.84;5023089;28;20049;-84
2022/06/08 02:03:45;;;;;;;57.15;43.25;;;;;;;;;;5029614;28;20099;-84
2022/06/08 02:06:26;;;;;;;58.30;41.65;;;;;;;13.94;100.00;68316.88;5029977;28;20417;-84
2022/06/08 02:09:03;;;;;;;52.88;40.30;;;;;;;;;;5020208;28;20129;-85
2022/06/08 02:11:39;;;;;;;57.28;40.67;;;;;;;13.95;100.00;68323.38;5000417;28;20125;-85
2022/06/08 02:14:19;;;;;;;58.67;41.50;;;;;;;13.93;100.00;68315.75;5019530;28;20100;-84
2022/06/08 02:16:49;;;;;;;57.70;42.60;;;;;;;13.97;100.00;68320.31;4999510;28;20040;-84
2022/06/08 02:19:32;;;;;;;61.08;42.95;;;;;;;14.02;100.00;68331.34;5006563;28;20037;-84
2022/06/08 02:22:10;;;;;;;60.78;42.13;;;;;;;14.02;100.00;68325.44;5019565;28;20045;-84
2022/06/08 02:24:45;;;;;;;58.28;42.92;;;;;;;14.05;100.00;68326.72;4997258;28;20141;-84
2022/06/08 02:27:13;;;;;;;61.97;41.28;;;;;;;;;;4980831;28;20049;-84
2022/06/08 02:29:51;;;;;;;55.45;40.45;;;;;;;14.09;100.00;68333.94;5002546;28;20552;-83
2022/06/08 02:35:18;;;;;;;57.60;42.25;;;;;;;14.07;100.00;68331.09;5025677;28;20044;-84
2022/06/08 02:37:49;;;;;;;56.72;39.65;;;;;;;14.08;100.00;68327.47;5031957;28;20057;-84
2022/06/08 02:40:20;;;;;;;57.38;40.50;;;;;;;14.12;100.00;68336.81;5022687;28;20041;-85
2022/06/08 02:42:50;;;;;;;60.20;41.78;;;;;;;14.13;100.00;68343.31;5025790;28;20137;-84
2022/06/08 02:45:24;;;;;;;58.17;42.03;;;;;;;14.11;100.00;68336.22;5030466;28;20045;-84
2022/06/08 02:47:53;;;;;;;57.50;37.85;;;;;;;14.10;100.00;68335.09;5009967;28;20441;-86
2022/06/08 02:50:26;;;;;;;64.40;41.35;;;;;;;14.14;100.00;68345.00;5021060;28;20044;-84
2022/06/08 02:53:04;;;;;;;55.28;39.63;;;;;;;14.12;100.00;68337.38;5009706;28;20120;-84
2022/06/08 02:55:33;;;;;;;58.05;40.50;;;;;;;;;;5013218;28;20039;-84
2022/06/08 02:58:05;;;;;;;60.85;43.63;;;;;;;14.16;100.00;68347.28;5013365;28;20072;-84
2022/06/08 03:00:35;;;;;;;61.47;40.92;;;;;;;14.12;100.00;68342.72;5015921;28;20122;-84
2022/06/08 03:03:07;;;;;;;58.30;40.33;;;;;;;14.13;100.00;68337.94;5013354;28;20043;-84
2022/06/08 03:05:55;;;;;;;58.75;39.38;;;;;;;14.09;100.00;68333.94;5030192;28;20041;-84
2022/06/08 03:08:34;;;;;;;58.10;39.47;;;;;;;14.08;100.00;68332.81;5012296;28;20037;-84
2022/06/08 03:11:01;;;;;;;55.08;41.13;;;;;;;;;;5030204;28;20044;-84
2022/06/08 03:13:28;;;;;;;58.90;38.70;;;;;;;;;;5030996;28;20049;-83
2022/06/08 03:15:57;;;;;;;59.47;40.63;;;;;;;14.02;100.00;68326.00;5032390;28;20045;-83
2022/06/08 03:18:23;;;;;;;;;;;;;;;14.01;100.00;68330.19;5028290;28;20481;-83
2022/06/08 03:20:49;;;;;;;63.13;42.58;;;;;;;13.93;100.00;68315.75;5030631;28;19921;-84
2022/06/08 03:23:14;;;;;;;61.08;39.95;;;;;;;13.93;100.00;68315.75;5012322;28;20041;-83
2022/06/08 03:25:40;;;;;;;57.80;39.90;;;;;;;;;;5029256;28;20046;-84
2022/06/08 03:28:05;;;;;;;57.75;40.03;;;;;;;;;;5010963;28;20105;-84
2022/06/08 03:30:30;;;;;;;61.35;40.67;;;;;;;;;;5010159;28;20405;-84
2022/06/08 03:32:56;;;;;;;60.27;41.87;;;;;;;13.90;100.00;68318.25;5026483;28;20095;-84
2022/06/08 03:35:21;;;;;;;64.72;41.15;;;;;;;13.85;100.00;68312.56;5028488;28;20276;-84
2022/06/08 03:37:47;;;;;;;62.30;41.22;;;;;;;13.87;100.00;68308.94;5027223;28;20041;-84
2022/06/08 03:40:13;;;;;;;62.67;40.75;;;;;;;13.84;100.00;68305.50;5010830;28;20049;-85
2022/06/08 03:42:38;;;;;;;60.40;41.42;;;;;;;;;;5024500;28;20123;-84
2022/06/08 03:45:05;;;;;;;59.42;42.33;;;;;;;13.90;100.00;68312.34;5007934;28;20689;-85
2022/06/08 03:47:36;;;;;;;59.53;40.78;;;;;;;13.92;100.00;68314.59;5022061;28;20056;-83
2022/06/08 03:50:04;;;;;;;68.15;43.90;;;;;;;;;;5007617;28;20075;-83
2022/06/08 03:52:35;;;;;;;63.45;43.63;;;;;;;13.95;100.00;68323.97;5022972;28;20132;-83
2022/06/08 03:55:03;;;;;;;63.83;42.30;;;;;;;13.97;100.00;68326.22;5026985;28;20050;-84
2022/06/08 03:57:30;;;;;;;64.25;41.35;;;;;;;;;;5018653;28;20119;-85
2022/06/08 03:59:56;;;;;;;64.47;43.20;;;;;;;14.03;100.00;68332.47;5023534;28;20644;-85
2022/06/08 04:02:23;;;;;;;66.50;43.50;;;;;;;14.02;100.00;68326.00;5003166;28;20041;-85
2022/06/08 04:04:48;;;;;;;65.43;43.35;;;;;;;;;;5017043;28;20049;-85
2022/06/08 04:07:14;;;;;;;62.22;43.83;;;;;;;14.08;100.00;68332.81;5000858;28;20053;-84
2022/06/08 04:09:39;;;;;;;61.80;43.08;;;;;;;14.07;100.00;68331.69;5009768;28;20037;-85
2022/06/08 04:12:05;;;;;;;68.13;45.42;;;;;;;14.10;100.00;68334.53;5023423;28;20124;-85
2022/06/08 04:14:30;;;;;;;71.05;44.47;;;;;;;14.14;100.00;68344.44;4997731;28;20068;-85
2022/06/08 04:16:56;;;;;;;66.07;46.08;;;;;;;14.20;100.00;68351.25;5010140;28;20048;-84
2022/06/08 04:19:21;;;;;;;71.50;45.60;;;;;;;14.17;100.00;68348.41;5016179;28;20140;-84
2022/06/08 04:21:47;;;;;;;72.45;49.70;;;;;;;14.22;100.00;68348.19;5003881;28;20068;-84
2022/06/08 04:24:14;;;;;;;75.50;47.35;;;;;;;;;;5027500;28;20053;-82
2022/06/08 04:26:39;;;;;;;79.80;49.20;;;;;;;;;;5019836;28;20038;-84
2022/06/08 04:29:06;;;;;;;89.50;52.85;;;;;;;14.28;100.00;68360.38;5025006;28;20455;-86
2022/06/08 04:31:34;;;;;;;91.85;50.33;;;;;;;14.29;100.00;68363.63;5017144;28;20072;-86
2022/06/08 04:33:59;;;;;;;91.13;52.55;;;;;;;;;;5018599;28;20048;-87
2022/06/08 04:36:25;;;;;;;93.10;52.55;;;;;;;14.28;100.00;68354.44;5009087;28;20045;-86
2022/06/08 04:38:50;;;;;;;89.93;49.78;;;;;;;14.29;100.00;68361.50;5025303;28;20037;-85
2022/06/08 04:41:16;;;;;;;90.10;49.53;;;;;;;;;;5010179;28;20060;-85
2022/06/08 04:43:42;;;;;;;89.45;48.72;;;;;;;14.30;100.00;68356.72;5021267;28;20045;-85
2022/06/08 04:46:08;;;;;;;84.75;47.72;;;;;;;14.35;100.00;68362.41;5008773;28;20053;-85
2022/06/08 04:48:33;;;;;;;80.32;46.88;;;;;;;14.36;100.00;68364.13;4995659;28;20033;-85
2022/06/08 04:50:59;;;;;;;79.97;46.13;;;;;;;;;;5026856;28;20111;-85
2022/06/08 04:53:24;;;;;;;77.97;42.25;;;;;;;14.40;100.00;68376.13;5025649;28;20037;-85
2022/06/08 04:55:50;;;;;;;75.32;42.13;;;;;;;14.46;100.00;68374.94;5025834;28;20045;-85
2022/06/08 04:58:16;;;;;;;73.70;42.53;;;;;;;14.51;100.00;68380.63;5027757;28;20041;-85
2022/06/08 05:00:41;;;;;;;75.93;42.33;;;;;;;14.50;100.00;68384.84;5024293;28;20033;-85
2022/06/08 05:03:07;;;;;;;64.65;41.08;;;;;;;;;;5012098;28;20091;-85
2022/06/08 05:05:38;;;;;;;69.00;38.00;;;;;;;14.51;100.00;68380.63;5025825;28;20038;-85
2022/06/08 05:08:05;;;;;;;62.35;36.42;;;;;;;14.55;100.00;68390.56;5001360;28;20566;-85
2022/06/08 05:10:32;;;;;;;63.97;38.00;;;;;;;14.55;100.00;68384.63;5026708;28;20064;-85
2022/06/08 05:12:58;;;;;;;62.90;38.08;;;;;;;14.54;100.00;68389.41;5006433;28;20038;-85
2022/06/08 05:15:30;;;;;;;61.53;38.35;;;;;;;14.60;100.00;68390.88;4990837;28;20108;-85
2022/06/08 05:17:57;;;;;;;56.88;37.05;;;;;;;14.63;100.00;68394.31;5021849;28;20037;-85
2022/06/08 05:20:24;;;;;;;58.13;38.30;;;;;;;14.69;100.00;68400.00;5022110;28;20037;-85
2022/06/08 05:22:50;;;;;;;56.30;36.15;;;;;;;;;;5017640;28;20095;-85
2022/06/08 05:25:25;;;;;;;60.25;36.25;;;;;;;14.87;100.00;68417.81;5019083;28;20195;-85
2022/06/08 05:27:51;;;;;;;55.10;34.80;;;;;;;14.86;100.00;68417.25;5021522;28;20037;-85
2022/06/08 05:30:17;;;;;;;58.35;34.80;;;;;;;14.87;100.00;68421.06;5030904;28;20463;-86
2022/06/08 05:32:42;;;;;;;57.80;35.95;;;;;;;14.93;100.00;68426.75;5028365;28;20052;-86
2022/06/08 05:35:09;;;;;;;54.08;32.78;;;;;;;14.91;100.00;68421.81;5024114;28;20042;-85
2022/06/08 05:37:34;;;;;;;59.05;35.72;;;;;;;14.91;100.00;68429.84;5029074;28;20049;-86
2022/06/08 05:40:00;;;;;;;53.70;32.88;;;;;;;14.96;100.00;68428.06;5000510;28;20044;-86
2022/06/08 05:42:25;;;;;;;57.10;35.33;;;;;;;14.95;100.00;68429.59;5017966;28;20037;-85
2022/06/08 05:44:51;;;;;;;52.70;30.67;;;;;;;14.98;100.00;68433.00;5025174;28;20382;-85
2022/06/08 05:47:16;;;;;;;54.58;35.38;;;;;;;15.03;100.00;68436.03;5024787;28;20132;-85
2022/06/08 05:49:42;;;;;;;51.20;32.45;;;;;;;;;;5016751;28;20056;-85
2022/06/08 05:52:07;;;;;;;49.05;30.92;;;;;;;15.19;100.00;68455.78;5011421;28;20485;-85
2022/06/08 05:54:33;;;;;;;51.13;32.60;;;;;;;;;;5029135;28;20033;-86
2022/06/08 05:56:59;;;;;;;51.03;30.13;;;;;;;15.32;100.00;68470.59;5021178;28;20041;-86
2022/06/08 05:59:24;;;;;;;44.85;31.10;;;;;;;15.39;100.00;68478.00;5012596;28;20050;-86
2022/06/08 06:01:50;;;;;;;47.83;30.60;;;;;;;15.46;100.00;68491.91;5027685;28;20048;-85
2022/06/08 06:04:16;;;;;;;44.97;29.30;;;;;;;15.58;100.00;68500.22;5012289;28;20600;-86
2022/06/08 06:06:45;;;;;;;45.88;26.90;;;;;;;;;;5028908;28;20125;-86
2022/06/08 06:09:11;;;;;;;42.83;26.95;;;;;;;15.73;100.00;68516.75;5026353;28;20045;-86
2022/06/08 06:11:37;;;;;;;41.70;28.13;;;;;;;15.84;100.00;68528.72;5029195;28;20053;-86
2022/06/08 06:14:03;;;;;;;44.70;28.38;;;;;;;15.92;100.00;68535.16;5011169;28;20116;-86
2022/06/08 06:16:29;;;;;;;44.63;28.05;;;;;;;;;;5030142;28;20386;-86
2022/06/08 06:18:55;;;;;;;39.83;27.55;;;;;;;15.93;100.00;68543.78;5029330;28;20040;-85
2022/06/08 06:21:27;;;;;;;40.20;27.45;;;;;;;15.95;100.00;68541.25;5011743;28;20041;-86
2022/06/08 06:23:54;;;;;;;43.28;27.67;;;;;;;16.01;100.00;68553.47;5028112;28;20128;-86
2022/06/08 06:26:20;;;;;;;37.53;25.33;;;;;;;16.02;100.00;68548.66;5028135;28;20037;-86
2022/06/08 06:28:46;;;;;;;38.30;25.17;;;;;;;16.02;100.00;68549.25;5027935;28;20459;-85
2022/06/08 06:31:18;;;;;;;35.75;24.33;;;;;;;16.06;100.00;68552.66;5029382;28;20835;-85
2022/06/08 06:33:44;;;;;;;33.47;23.52;;;;;;;16.11;100.00;68555.66;5027407;28;20052;-86
2022/06/08 06:36:10;;;;;;;35.83;25.50;;;;;;;;;;5029676;28;20041;-86
2022/06/08 06:38:35;;;;;;;35.90;26.75;;;;;;;16.30;100.00;68580.00;5027197;28;20044;-86
2022/06/08 06:41:00;;;;;;;34.17;23.13;;;;;;;16.35;100.00;68585.72;4996016;28;20480;-86
2022/06/08 06:43:26;;;;;;;30.95;22.50;;;;;;;;;;5021932;28;20111;-86
2022/06/08 06:45:51;;;;;;;33.88;21.88;;;;;;;16.46;100.00;68603.06;5027020;28;20054;-86
2022/06/08 06:48:16;;;;;;;26.30;18.77;;;;;;;16.47;100.00;68599.41;5011649;28;20095;-86
2022/06/08 06:50:42;;;;;;;27.15;19.88;;;;;;;16.48;100.00;68599.97;5011180;28;20048;-86
2022/06/08 06:53:09;;;;;;;25.75;17.95;;;;;;;16.53;100.00;68605.09;5011049;28;20120;-86
2022/06/08 06:55:34;;;;;;;21.08;14.85;;;;;;;16.52;100.00;68609.34;5028119;28;20037;-85
2022/06/08 06:58:00;;;;;;;24.55;17.00;;;;;;;16.63;100.00;68613.81;5028266;28;20049;-86
2022/06/08 07:00:26;;;;;;;22.38;14.93;;;;;;;16.67;100.00;68621.63;5011660;28;20042;-86
2022/06/08 07:02:52;;;;;;;23.92;16.30;;;;;;;16.71;100.00;68625.63;5027485;28;20041;-87
2022/06/08 07:05:24;;;;;;;23.23;15.65;;;;;;;16.85;100.00;68636.22;5027409;28;20409;-86
2022/06/08 07:07:49;;;;;;;22.30;14.50;;;;;;;16.91;100.00;68643.06;5027244;28;20038;-86
2022/06/08 07:10:15;;;;;;;24.27;15.32;;;;;;;17.02;100.00;68659.84;5011138;28;20041;-86
2022/06/08 07:12:41;;;;;;;21.52;13.50;;;;;;;17.06;100.00;68665.00;5009974;28;20059;-86
2022/06/08 07:15:07;;;;;;;21.52;14.57;;;;;;;17.28;100.00;68686.81;5010532;28;20520;-86
2022/06/08 07:17:33;;;;;;;21.40;14.77;;;;;;;17.36;100.00;68695.94;5027098;28;20125;-87
2022/06/08 07:19:59;;;;;;;21.52;14.30;;;;;;;17.36;100.00;68695.94;5010740;28;20053;-86
2022/06/08 07:22:25;;;;;;;18.33;12.73;;;;;;;17.36;100.00;68695.38;5026932;28;20463;-86
2022/06/08 07:24:50;;;;;;;20.10;13.98;;;;;;;17.39;100.00;68695.56;5026261;28;20045;-86
2022/06/08 07:27:16;;;;;;;23.08;15.13;;;;;;;;;;5026844;28;20132;-86
2022/06/08 07:29:42;;;;;;;17.92;12.70;;;;;;;17.61;100.00;68731.41;5008752;28;20455;-87
2022/06/08 07:32:08;;;;;;;16.25;11.65;;;;;;;17.62;99.65;68723.91;5012565;28;20045;-86
2022/06/08 07:34:33;;;;;;;14.88;10.73;;;;;;;17.74;100.00;68746.25;5010845;28;20037;-86
2022/06/08 07:37:00;;;;;;;15.43;10.95;;;;;;;17.81;98.84;68748.31;5007062;28;20408;-85
2022/06/08 07:39:26;;;;;;;14.07;9.80;;;;;;;17.93;99.76;68758.75;5027994;28;20485;-86
2022/06/08 07:41:52;;;;;;;13.23;8.88;;;;;;;17.98;96.53;68767.72;5003105;28;20041;-86
2022/06/08 07:44:18;;;;;;;10.70;6.78;;;;;;;18.09;95.18;68779.13;5004345;28;20519;-86
2022/06/08 07:46:44;;;;;;;7.20;4.70;;;;;;;18.04;91.04;68774.56;5014227;28;20041;-86
2022/06/08 07:52:00;;;;;;;10.57;4.65;;;;;;;18.23;90.89;68795.66;5026068;28;20041;-86
2022/06/08 07:54:28;;;;;;;9.07;5.40;;;;;;;18.24;91.39;68793.53;5001459;28;20041;-86
2022/06/08 07:56:54;;;;;;;6.63;4.00;;;;;;;18.26;89.24;68799.09;5007955;28;20045;-86
2022/06/08 07:59:23;;;;;;;7.35;4.05;;;;;;;18.34;90.94;68804.97;5017996;28;20041;-86
2022/06/08 08:01:49;;;;;;;7.70;4.40;;;;;;;18.38;88.92;68809.53;5001264;28;20037;-86
2022/06/08 08:04:15;;;;;;;5.82;3.70;;;;;;;18.46;89.17;68818.09;5014211;28;20042;-86
2022/06/08 08:06:40;;;;;;;5.53;3.67;;;;;;;18.55;89.46;68828.38;5005507;28;20056;-86
2022/06/08 08:09:09;;;;;;;6.60;3.95;;;;;;;18.63;89.52;68837.50;5020407;28;20709;-85
2022/06/08 08:11:35;;;;;;;7.25;3.80;;;;;;;18.72;88.77;68850.47;5018291;28;20377;-86
2022/06/08 08:14:00;;;;;;;6.88;3.55;;;;;;;18.77;87.72;68850.25;4989331;28;20036;-87
2022/06/08 08:16:26;;;;;;;6.70;3.13;;;;;;;;;;5014112;28;20463;-85
2022/06/08 08:18:51;;;;;;;5.30;2.78;;;;;;;;;;5008386;28;20042;-86
2022/06/08 08:21:16;;;;;;;5.07;2.50;;;;;;;18.98;84.88;68879.03;5020323;28;20496;-86
2022/06/08 08:23:42;;;;;;;5.47;2.30;;;;;;;18.99;84.37;68876.91;5007987;28;20061;-86
2022/06/08 08:26:07;;;;;;;5.13;2.35;;;;;;;19.00;81.20;68878.06;5008004;28;20091;-87
2022/06/08 08:28:33;;;;;;;5.80;2.47;;;;;;;19.00;82.21;68878.63;5008082;28;20386;-86
2022/06/08 08:30:58;;;;;;;4.88;2.60;;;;;;;19.04;83.66;68880.50;5023271;28;20401;-86
2022/06/08 08:33:23;;;;;;;4.35;2.30;;;;;;;19.07;83.02;68886.63;4991290;28;20041;-87
2022/06/08 08:35:50;;;;;;;4.45;2.45;;;;;;;;;;5025476;28;20038;-86
2022/06/08 08:38:16;;;;;;;5.60;2.55;;;;;;;19.06;79.75;68885.50;5027760;28;20052;-86
2022/06/08 08:40:59;;;;;;;6.72;2.53;;;;;;;19.19;81.87;68902.47;4996078;28;20050;-86
2022/06/08 08:43:34;;;;;;;4.60;2.65;;;;;;;19.29;80.05;68911.19;4973046;28;20049;-86
2022/06/08 08:46:15;;;;;;;4.88;2.25;;;;;;;19.28;78.86;68912.19;5021736;28;20045;-87
2022/06/08 08:48:54;;;;;;;3.58;2.08;;;;;;;19.30;76.18;68914.47;5019777;28;20042;-87
2022/06/08 08:51:32;;;;;;;6.50;2.53;;;;;;;19.49;79.13;68930.22;4998533;28;20498;-86
2022/06/08 08:54:04;;;;;;;4.90;2.20;;;;;;;;;;5025845;28;20492;-87
2022/06/08 08:56:37;;;;;;;5.15;2.28;;;;;;;19.71;78.07;68954.78;5026266;28;20038;-87
2022/06/08 08:59:09;;;;;;;4.78;2.28;;;;;;;;;;5027630;28;20037;-87
2022/06/08 09:01:38;;;;;;;4.80;2.22;;;;;;;19.72;77.19;68961.34;5013259;28;20045;-86
2022/06/08 09:04:22;;;;;;;;;;;;;;;19.70;76.36;68954.22;5031073;28;20040;-87
2022/06/08 09:06:49;;;;;;;3.45;2.17;;;;;;;19.76;77.70;68963.22;5025333;28;19971;-86
2022/06/08 09:09:21;;;;;;;4.40;1.90;;;;;;;20.06;76.99;68997.50;5014003;28;20507;-87
2022/06/08 09:11:47;;;;;;;4.25;1.90;;;;;;;20.27;75.26;69018.22;5029795;28;20681;-86
2022/06/08 09:14:22;;;;;;;4.60;2.15;;;;;;;20.25;73.46;69020.78;5031521;28;20073;-87
2022/06/08 09:16:50;;;;;;;4.35;1.73;;;;;;;20.21;73.97;69013.50;5013107;28;20053;-87
2022/06/08 09:19:21;;;;;;;3.97;1.50;;;;;;;20.25;72.66;69020.78;5017521;28;20042;-87
2022/06/08 09:22:03;;;;;;;3.38;1.30;;;;;;;20.25;71.41;69018.06;5026602;28;20381;-86
2022/06/08 09:24:49;;;;;;;4.85;1.30;;;;;;;20.28;71.84;69021.50;4994178;28;20552;-87
2022/06/08 09:27:26;;;;;;;4.65;1.25;;;;;;;20.35;72.14;69031.66;5023897;28;20114;-87
2022/06/08 09:30:24;;;;;;;3.58;1.20;;;;;;;20.37;71.95;69033.91;5025681;28;20045;-88
2022/06/08 09:32:54;;;;;;;3.35;1.40;;;;;;;20.46;71.15;69042.09;5026734;28;20064;-87
2022/06/08 09:35:22;;;;;;;3.92;1.60;;;;;;;20.51;72.26;69050.53;5017474;28;20041;-87
2022/06/08 09:37:50;;;;;;;3.55;1.58;;;;;;;20.72;73.14;69073.41;5010734;28;20045;-87
2022/06/08 09:40:37;;;;;;;3.40;1.50;;;;;;;20.82;71.54;69079.44;5024978;28;20052;-87
2022/06/08 09:43:15;;;;;;;3.72;1.67;;;;;;;20.80;72.67;69082.56;5022724;28;20112;-87
2022/06/08 09:45:52;;;;;;;3.03;1.42;;;;;;;20.81;72.39;69081.00;5021455;28;20045;-88
2022/06/08 09:51:25;;;;;;;4.07;1.92;;;;;;;20.86;71.29;69084.00;5028121;28;20067;-88
2022/06/08 09:53:58;;;;;;;4.22;2.15;;;;;;;20.91;70.63;69094.56;5029089;28;20452;-88
2022/06/08 09:56:48;;;;;;;4.07;2.10;;;;;;;20.99;71.42;69103.16;5022439;28;20046;-88
2022/06/08 09:59:32;;;;;;;3.20;1.80;;;;;;;21.00;71.16;69102.16;5001104;28;20068;-87
2022/06/08 10:02:03;;;;;;;6.20;1.77;;;;;;;20.97;68.67;69098.72;5009497;28;20053;-88
2022/06/08 10:05:03;;;;;;;4.30;1.88;;;;;;;20.95;69.05;69099.72;5026117;28;20496;-88
2022/06/08 10:07:55;;;;;;;4.00;2.22;;;;;;;20.93;69.11;69094.72;4981939;28;20070;-88
2022/06/08 10:10:34;;;;;;;6.13;2.20;;;;;;;20.89;68.83;69092.84;4977014;28;20069;-88
2022/06/08 10:13:18;;;;;;;4.05;2.30;;;;;;;20.82;69.09;69079.44;5017584;28;20068;-88
2022/06/08 10:16:01;;;;;;;4.03;2.22;;;;;;;20.84;69.58;69084.44;5020182;28;20037;-88
2022/06/08 10:18:33;;;;;;;4.53;1.92;;;;;;;20.92;70.61;69095.72;5010644;28;20111;-88
2022/06/08 10:21:05;;;;;;;5.10;2.13;;;;;;;21.13;71.99;69119.16;5011208;28;20544;-88
2022/06/08 10:23:45;;;;;;;5.85;2.72;;;;;;;21.22;70.61;69126.19;5028363;28;20748;-88
2022/06/08 10:26:35;;;;;;;3.70;1.98;;;;;;;21.29;68.51;69137.47;5027708;28;20057;-88
2022/06/08 10:29:06;;;;;;;5.68;2.00;;;;;;;21.14;67.53;69114.88;5029082;28;20091;-88
2022/06/08 10:31:44;;;;;;;5.38;2.00;;;;;;;21.07;68.60;69112.31;5029308;28;20030;-88
2022/06/08 10:34:19;;;;;;;4.90;1.90;;;;;;;21.16;66.37;69117.19;5012549;28;20048;-87
2022/06/08 10:36:55;;;;;;;6.07;2.28;;;;;;;21.23;67.83;69122.47;5006227;28;20063;-87
2022/06/08 10:39:22;;;;;;;5.13;1.77;;;;;;;21.26;66.35;69128.63;5007342;28;20532;-87
2022/06/08 10:44:58;;;;;;;4.40;1.33;;;;;;;21.13;64.81;69116.47;4999432;28;20749;-87
2022/06/08 10:47:37;;;;;;;4.53;1.60;;;;;;;21.22;66.53;69129.47;5010058;28;20049;-87
2022/06/08 10:50:03;;;;;;;3.83;1.77;;;;;;;21.34;66.98;69140.47;5002643;28;20034;-87
2022/06/08 10:52:44;;;;;;;6.32;1.92;;;;;;;21.43;66.82;69152.34;5007067;28;20410;-87
2022/06/08 10:55:18;;;;;;;4.20;2.25;;;;;;;21.45;66.25;69154.66;5021582;28;20492;-88
2022/06/08 10:57:49;;;;;;;5.38;2.85;;;;;;;21.49;66.56;69156.50;5026973;28;20107;-87
2022/06/08 11:00:24;;;;;;;4.03;1.45;;;;;;;21.47;65.84;69151.53;5007268;28;20128;-87
2022/06/08 11:03:02;;;;;;;5.70;2.10;;;;;;;21.49;65.46;69156.50;5022205;28;20080;-87
2022/06/08 11:05:36;;;;;;;4.45;1.80;;;;;;;21.48;65.08;69152.66;4991299;28;20052;-88
2022/06/08 11:08:02;;;;;;;5.97;2.55;;;;;;;21.49;65.96;69159.22;5006905;28;20545;-88
2022/06/08 11:10:55;;;;;;;2.90;1.75;;;;;;;21.69;66.72;69181.53;5009711;28;20099;-87
2022/06/08 11:13:26;;;;;;;5.28;1.90;;;;;;;21.67;64.96;69174.41;4994699;28;20042;-87
2022/06/08 11:16:12;;;;;;;5.95;1.95;;;;;;;21.53;66.32;69161.09;5020933;28;20041;-88
2022/06/08 11:19:00;;;;;;;6.57;2.53;;;;;;;21.40;67.23;69146.78;5008114;28;20089;-87
2022/06/08 11:21:54;;;;;;;6.05;2.25;;;;;;;21.30;68.75;69135.34;4987438;28;20721;-88
2022/06/08 11:24:35;;;;;;;6.15;2.35;;;;;;;21.11;67.23;69116.88;5019112;28;20046;-87
2022/06/08 11:27:12;;;;;;;6.03;1.98;;;;;;;20.91;68.51;69095.13;4995727;28;20049;-87
2022/06/08 11:29:47;;;;;;;9.18;2.25;;;;;;;20.62;74.61;69059.25;5023501;28;20184;-86
2022/06/08 11:32:33;;;;;;;7.95;2.15;;;;;;;19.95;78.72;68982.22;5015667;28;20045;-83
2022/06/08 11:35:05;;;;;;;4.68;2.00;;;;;;;19.64;82.24;68952.19;5021635;28;20041;-84
2022/06/08 11:37:30;;;;;;;5.57;2.22;;;;;;;19.30;83.75;68911.75;4998637;28;20099;-85
2022/06/08 11:40:13;;;;;;;5.22;1.45;;;;;;;18.96;81.13;68881.59;5021927;28;20045;-86
2022/06/08 11:43:00;;;;;;;6.78;2.28;;;;;;;;;;5024395;28;20125;-86
2022/06/08 11:45:39;;;;;;;7.13;2.20;;;;;;;18.69;85.87;68844.34;5004073;28;20049;-86
2022/06/08 11:48:26;;;;;;;4.13;1.63;;;;;;;18.59;85.67;68830.25;5006470;28;20408;-86
2022/06/08 11:51:00;;;;;;;5.40;2.17;;;;;;;18.58;85.83;68833.91;5026658;28;20067;-86
2022/06/08 11:53:28;;;;;;;8.18;2.60;;;;;;;18.57;88.49;68833.34;5024403;28;20049;-86
2022/06/08 11:55:58;;;;;;;6.80;3.08;;;;;;;;;;5017659;28;20113;-86
2022/06/08 11:58:27;;;;;;;;;;;;;;;18.38;88.03;68808.94;5028637;28;20045;-86
2022/06/08 12:01:01;;;;;;;7.20;2.58;;;;;;;18.30;90.21;68802.50;5026635;28;19917;-86
2022/06/08 12:03:42;;;;;;;7.72;2.70;;;;;;;18.21;90.06;68793.41;5027699;28;20504;-86
2022/06/08 12:06:18;;;;;;;7.30;2.97;;;;;;;18.23;90.31;68795.09;5025317;28;20048;-86
2022/06/08 12:09:00;;;;;;;7.22;3.55;;;;;;;18.27;91.81;68799.69;5026980;28;20052;-86
2022/06/08 12:11:31;;;;;;;9.15;3.50;;;;;;;18.29;92.20;68801.38;5004790;28;20042;-86
2022/06/08 12:14:03;;;;;;;10.10;4.07;;;;;;;18.18;94.84;68784.59;5008423;28;20041;-86